KSGR/SGR METAR and TAF weather

Enter ICAO airport designator
Station Type Date Time Source
KSGR METAR 2019/05/25 08:53 UTC NOAA

KSGR 250853Z AUTO 14008KT 10SM BKN029 24/23 A2998 RMK AO2 SLP153 T02440233 55007


Station Type Date Time Source
KSGR Decoded METAR 2019/05/25 08:53 UTC NOAA

SUGARLAND REGIONAL AIRPORT, TX, United States (KSGR) 29-37N 095-39W
May 25, 2019 - 04:53 AM EDT / 2019.05.25 0853 UTC
Wind: from the SE (140 degrees) at 9 MPH (8 KT):0
Visibility: 10 mile(s):0
Sky conditions: mostly cloudy
Temperature: 75.9 F (24.4 C)
Dew Point: 73.9 F (23.3 C)
Relative Humidity: 93%
Pressure (altimeter): 29.98 in. Hg (1015 hPa)
Pressure tendency: 0.02 inches (0.7 hPa) lower than three hours ago
ob: KSGR 250853Z AUTO 14008KT 10SM BKN029 24/23 A2998 RMK AO2 SLP153 T02440233 55007
cycle: 9

Station Type Date Time Source
KSGR TAF 2019/05/25 06:22 UTC NOAA

TAF KSGR 250520Z 2506/2606 15008KT P6SM SCT025 SCT250
FM251400 15013KT P6SM SCT020
FM260100 15008KT P6SM SCT250

Example: see airport list